HGLO2: Hugo Lake

Data processed at Sat Mar 10 2018 23:06


All information presented herein is the property of the government of the United States of America and may be revised or deleted at any time without prior notice.
Dissemination of this information without the expressed written consent of the Public Affairs Office, Tulsa District U.S. Army Corps of Engineers is strictly prohibited.
These data are gathered electronically and, as presented, have not undergone any form of quality control. These data are not guaranteed to be valid or correct.
Go to home page.
Go to station list.

Upstream stations:

Downstream station:
Previous Day
Next Day
Current Day
    
SHEF ID:       HGLO2     Hugo Lake
STATION TYPE:  RESERVOIR
Normal Pool:  Bottom =   390.00, Top =   404.50

               PRECIP ELEVATION   STORAGE    INFLOW   RELEASE  AIR-TEMP  WIND-DIRWIND-SPEED REL-HUMID SOLAR-RAD   VOLTAGE  BAT-LOAD
                   in        ft     ac-ft       cfs       cfs         F       deg       mph         %      W/m2      volt      volt
              Ccp-Rev   Ccp-Rev   Ccp-Rev  Regi-Rev  Regi-Rev   Ccp-Rev   Ccp-Rev   Ccp-Rev   Ccp-Rev   Ccp-Rev   Ccp-Rev   Ccp-Rev
(US/Central)
03/08 00:00      0.00    423.63    519063      4512     19749     39.09    178.40      2.60     93.12      0.00     13.53     13.13
03/08 01:00      0.00    423.59    518014      4499     19738     37.31    169.60      3.10     97.67      0.00     13.53     13.13
03/08 02:00      0.00    423.54    516702      5122     19726     36.79    184.10      1.80     97.90      0.00     13.53     13.13
03/08 03:00      0.00    423.49    515390      5111     19714     35.83    189.20      2.00     97.24      0.00     13.53     13.13
03/08 04:00      0.00    423.45    514341      4464     19702     35.04    167.60      2.30    100.08      0.00     13.53     13.13
03/08 05:00      0.00    423.40    513029      4452     19691     36.18    120.30      1.50     97.30      0.00     13.53     13.13
03/08 06:00      0.00    423.35    511717      5075     19678     36.79     65.40      1.30     90.94      0.00     13.53     13.13
03/08 07:00      0.00    423.30    510405      3793     19666     34.14    173.60      2.40     97.59      0.30     13.52     13.13
03/08 08:00      0.00    423.26    509356      4415     19654     35.55    165.50      2.40     98.90    104.60     13.52     13.13
03/08 09:00      0.00    423.20    507781      4403     19641     42.08    159.90      1.30     90.54    246.60     13.52     13.13
03/08 10:00      0.00    423.16    506732      4391     19629     45.39    354.00      5.10     77.48    443.10     13.53     13.13
03/08 11:00      0.00    423.11    505420      3744     19617     49.14    354.00      6.50     68.17    634.50     13.53     13.13
03/08 12:00      0.00    423.06    504108      4427     19605     55.06      0.00      4.70     44.67    768.90     13.53     13.13
03/08 13:00      0.00    423.01    502796      4476     19592     59.04    354.20      5.30     30.78    701.50     13.53     13.13
03/08 14:00      0.00    422.96    501510      3919     19578     60.67    351.90      4.60     32.23    569.00     13.53     13.13
03/08 15:00      0.00    422.92    500486      3982     19564     63.64    339.20      3.90     25.24    665.80     13.54     13.13
03/08 16:00      0.00    422.86    498950      4043     19549     64.90    237.20      6.40     22.80    454.90     13.54     13.13
03/08 17:00      0.00    422.81    497670      4316     19531     64.35    194.30      5.80     24.00    254.10     13.54     13.13
03/08 18:00      0.00    422.76    496390      3955     19516     62.74    187.10      7.00     25.67     96.50     13.54     13.13
03/08 19:00      0.00    422.72    495366      4559     19319     60.98    169.60      4.20     28.61      2.20     13.54     13.13
03/08 20:00      0.00    422.67    494086      4544     19305     56.79    161.00      3.50     41.02      0.00     13.54     13.13
03/08 21:00      0.00    422.62    492806      4529     19472     52.93    163.00      3.00     55.64      0.00     13.54     13.13
03/08 22:00      0.00    422.57    491526      3622     19456     49.23    172.90      2.20     72.59      0.00     13.54     13.13
03/08 23:00      0.00    422.52    490246      3951     19440     45.59    174.10      2.70     87.97      0.00     13.54     13.13